Time;durP1;ratioP1;P1;durP2;ratioP2;P2;SDS_P1;SDS_P2;PMS_P1;PMS_P2;Temp;Humidity;BMP_temperature;BMP_pressure;BME280_temperature;BME280_humidity;BME280_pressure;Samples;Min_cycle;Max_cycle;Signal;HPM_P1;HPM_P2
2021/01/25 00:01:19;;;;;;;;;;;6.70;74.30;;;;;;5032079;27;120592;-84
2021/01/25 00:03:44;;;;;;;;;;;6.70;74.30;;;;;;5032874;27;117666;-84
2021/01/25 00:06:10;;;;;;;;;;;6.70;74.30;;;;;;5032614;27;117494;-84
2021/01/25 00:08:35;;;;;;;;;;;6.70;74.30;;;;;;5031516;27;120222;-84
2021/01/25 00:11:01;;;;;;;;;;;6.70;74.30;;;;;;5031919;27;119232;-84
2021/01/25 00:13:26;;;;;;;;;;;6.70;74.30;;;;;;5032809;27;117232;-84
2021/01/25 00:15:52;;;;;;;;;;;6.70;74.30;;;;;;5033033;27;117385;-84
2021/01/25 00:18:17;;;;;;;;;;;6.70;74.30;;;;;;5031573;27;121310;-84
2021/01/25 00:20:43;;;;;;;;;;;6.70;74.30;;;;;;5031196;27;128566;-84
2021/01/25 00:23:08;;;;;;;;;;;6.70;74.30;;;;;;5032642;27;117777;-84
2021/01/25 00:25:34;;;;;;;;;;;6.70;74.20;;;;;;5032828;27;117811;-84
2021/01/25 00:27:59;;;;;;;;;;;6.70;74.30;;;;;;5031523;27;121712;-84
2021/01/25 00:30:25;;;;;;;;;;;6.60;74.20;;;;;;5030204;27;119825;-84
2021/01/25 00:32:50;;;;;;;;;;;6.70;74.30;;;;;;5032209;27;117433;-84
2021/01/25 00:35:16;;;;;;;;;;;6.70;74.30;;;;;;5032605;27;117518;-84
2021/01/25 00:37:41;;;;;;;;;;;6.70;74.30;;;;;;5031519;27;121147;-84
2021/01/25 00:40:07;;;;;;;;;;;6.70;74.30;;;;;;5031085;27;120283;-84
2021/01/25 00:42:33;;;;;;;;;;;6.60;74.20;;;;;;5032251;27;117416;-84
2021/01/25 00:44:58;;;;;;;;;;;6.70;74.30;;;;;;5049778;27;117676;-84
2021/01/25 00:47:24;;;;;;;;;;;6.70;74.30;;;;;;5031527;27;120430;-84
2021/01/25 00:49:49;;;;;;;;;;;6.70;74.30;;;;;;5030893;27;119208;-84
2021/01/25 00:52:15;;;;;;;;;;;6.60;74.20;;;;;;5049201;27;117532;-84
2021/01/25 00:54:40;;;;;;;;;;;6.70;74.30;;;;;;5031526;27;117812;-84
2021/01/25 00:57:06;;;;;;;;;;;6.70;74.20;;;;;;5048316;27;117237;-84
2021/01/25 00:59:31;;;;;;;;;;;6.60;74.20;;;;;;5030468;27;119021;-84
2021/01/25 01:01:57;;;;;;;;;;;6.60;74.20;;;;;;5031924;27;117585;-84
2021/01/25 01:04:22;;;;;;;;;;;6.60;74.20;;;;;;5031888;27;117879;-84
2021/01/25 01:06:48;;;;;;;;;;;6.60;74.20;;;;;;5030998;27;119817;-84
2021/01/25 01:09:13;;;;;;;;;;;6.60;74.20;;;;;;5030619;27;120279;-84
2021/01/25 01:11:39;;;;;;;;;;;6.60;74.20;;;;;;5031872;27;117522;-84
2021/01/25 01:14:04;;;;;;;;;;;6.70;74.30;;;;;;5032050;27;117777;-84
2021/01/25 01:16:30;;;;;;;;;;;6.70;74.20;;;;;;5030566;27;121427;-84
2021/01/25 01:18:55;;;;;;;;;;;6.60;74.20;;;;;;5029944;27;119816;-84
2021/01/25 01:21:21;;;;;;;;;;;6.60;74.20;;;;;;5048829;27;117455;-84
2021/01/25 01:23:46;;;;;;;;;;;6.60;74.20;;;;;;5048613;27;117576;-84
2021/01/25 01:26:12;;;;;;;;;;;6.60;74.20;;;;;;5030486;27;123853;-85
2021/01/25 01:28:37;;;;;;;;;;;6.60;74.30;;;;;;5030420;27;120622;-84
2021/01/25 01:31:03;;;;;;;;;;;6.60;74.20;;;;;;5031359;27;117608;-84
2021/01/25 01:33:28;;;;;;;;;;;6.60;74.20;;;;;;5031580;27;117546;-84
2021/01/25 01:35:54;;;;;;;;;;;6.60;74.20;;;;;;5048044;27;117457;-84
2021/01/25 01:38:19;;;;;;;;;;;6.60;74.20;;;;;;5047381;27;117487;-84
2021/01/25 01:40:45;;;;;;;;;;;6.60;74.20;;;;;;5031100;27;117487;-84
2021/01/25 01:43:10;;;;;;;;;;;6.60;74.20;;;;;;5047329;27;117791;-84
2021/01/25 01:45:36;;;;;;;;;;;6.60;74.20;;;;;;5030096;27;120645;-84
2021/01/25 01:48:01;;;;;;;;;;;6.60;74.20;;;;;;5030373;27;119508;-84
2021/01/25 01:50:27;;;;;;;;;;;6.60;74.20;;;;;;5030982;27;117540;-84
2021/01/25 01:52:52;;;;;;;;;;;6.60;74.20;;;;;;5048697;27;117402;-84
2021/01/25 01:55:18;;;;;;;;;;;6.60;74.20;;;;;;5030278;27;120002;-84
2021/01/25 01:57:44;;;;;;;;;;;6.60;74.20;;;;;;5047591;27;117567;-84
2021/01/25 02:00:10;;;;;;;;;;;6.60;74.20;;;;;;5047780;27;117842;-84
2021/01/25 02:02:37;;;;;;;;;;;6.60;74.20;;;;;;5031103;27;117445;-84
2021/01/25 02:05:02;;;;;;;;;;;6.60;74.20;;;;;;5029893;27;121144;-84
2021/01/25 02:07:28;;;;;;;;;;;6.60;74.20;;;;;;5029647;27;121003;-84
2021/01/25 02:09:53;;;;;;;;;;;6.60;74.20;;;;;;5030465;27;117469;-84
2021/01/25 02:12:19;;;;;;;;;;;6.60;74.20;;;;;;5031252;27;117444;-84
2021/01/25 02:14:44;;;;;;;;;;;6.60;74.20;;;;;;5029778;27;121482;-84
2021/01/25 02:17:11;;;;;;;;;;;6.60;74.20;;;;;;5046962;27;118019;-84
2021/01/25 02:19:36;;;;;;;;;;;6.60;74.20;;;;;;5030800;27;117277;-84
2021/01/25 02:22:21;;;;;;;;;;;6.60;74.20;;;;;;5048121;27;117343;-84
2021/01/25 02:24:51;;;;;;;;;;;6.60;74.20;;;;;;5046751;27;120206;-84
2021/01/25 02:27:25;;;;;;;;;;;6.60;74.20;;;;;;5029766;27;120367;-84
2021/01/25 02:29:50;;;;;;;;;;;6.60;74.10;;;;;;5030782;27;117672;-84
2021/01/25 02:32:16;;;;;;;;;;;6.60;74.20;;;;;;5030386;27;117827;-84
2021/01/25 02:34:41;;;;;;;;;;;6.60;74.20;;;;;;5029667;27;121489;-84
2021/01/25 02:37:07;;;;;;;;;;;6.60;74.20;;;;;;5029500;27;120308;-84
2021/01/25 02:39:32;;;;;;;;;;;6.60;74.20;;;;;;5030490;27;117502;-84
2021/01/25 02:41:58;;;;;;;;;;;6.60;74.10;;;;;;5048047;27;117544;-84
2021/01/25 02:44:24;;;;;;;;;;;6.60;74.10;;;;;;5029275;27;120702;-84
2021/01/25 02:46:49;;;;;;;;;;;6.60;74.10;;;;;;5029493;27;120087;-84
2021/01/25 02:49:15;;;;;;;;;;;6.60;74.00;;;;;;5030090;27;117450;-84
2021/01/25 02:51:40;;;;;;;;;;;6.60;74.10;;;;;;5048024;27;117565;-84
2021/01/25 02:54:06;;;;;;;;;;;6.60;74.10;;;;;;5030539;27;125413;-84
2021/01/25 02:56:31;;;;;;;;;;;6.60;74.10;;;;;;5032576;27;119202;-84
2021/01/25 02:58:57;;;;;;;;;;;6.60;74.10;;;;;;5050648;27;117312;-84
2021/01/25 03:01:22;;;;;;;;;;;6.60;74.10;;;;;;5051104;27;117799;-85
2021/01/25 03:03:48;;;;;;;;;;;6.60;74.10;;;;;;5032744;27;124959;-85
2021/01/25 03:06:13;;;;;;;;;;;6.60;74.10;;;;;;5032732;27;120459;-84
2021/01/25 03:08:39;;;;;;;;;;;6.60;74.00;;;;;;5033490;27;117321;-84
2021/01/25 03:11:05;;;;;;;;;;;6.50;74.00;;;;;;5034136;27;117321;-84
2021/01/25 03:13:30;;;;;;;;;;;6.60;74.00;;;;;;5050075;27;119144;-84
2021/01/25 03:15:57;;;;;;;;;;;6.60;74.00;;;;;;5032563;27;119721;-84
2021/01/25 03:18:23;;;;;;;;;;;6.50;74.00;;;;;;5033604;27;117507;-84
2021/01/25 03:20:49;;;;;;;;;;;6.60;74.00;;;;;;5033277;27;117582;-84
2021/01/25 03:23:14;;;;;;;;;;;6.50;74.00;;;;;;5032442;27;120164;-84
2021/01/25 03:25:40;;;;;;;;;;;6.50;74.00;;;;;;5032423;27;119144;-84
2021/01/25 03:28:05;;;;;;;;;;;6.50;74.00;;;;;;5033113;27;117521;-84
2021/01/25 03:30:31;;;;;;;;;;;6.60;74.00;;;;;;5050557;27;117566;-84
2021/01/25 03:32:56;;;;;;;;;;;6.50;74.00;;;;;;5032524;27;120183;-84
2021/01/25 03:35:22;;;;;;;;;;;6.50;74.00;;;;;;5032508;27;119674;-84
2021/01/25 03:37:47;;;;;;;;;;;6.50;74.00;;;;;;5033377;27;117368;-84
2021/01/25 03:40:13;;;;;;;;;;;6.50;74.00;;;;;;5033706;27;117628;-84
2021/01/25 03:42:38;;;;;;;;;;;6.50;74.00;;;;;;5032280;27;121486;-84
2021/01/25 03:45:04;;;;;;;;;;;6.50;74.00;;;;;;5031640;27;120678;-84
2021/01/25 03:47:30;;;;;;;;;;;6.50;74.00;;;;;;5033494;27;117346;-84
2021/01/25 03:49:55;;;;;;;;;;;6.50;74.00;;;;;;5033186;27;117327;-84
2021/01/25 03:52:21;;;;;;;;;;;6.50;74.00;;;;;;5032361;27;120077;-84
2021/01/25 03:54:46;;;;;;;;;;;6.50;74.00;;;;;;5032192;27;120432;-84
2021/01/25 03:57:12;;;;;;;;;;;6.50;74.00;;;;;;5032877;27;117477;-84
2021/01/25 03:59:37;;;;;;;;;;;6.50;74.00;;;;;;5050200;27;117501;-84
2021/01/25 04:02:03;;;;;;;;;;;6.50;74.00;;;;;;5032011;27;120334;-84
2021/01/25 04:04:28;;;;;;;;;;;6.50;74.00;;;;;;5032178;27;119175;-84
2021/01/25 04:06:54;;;;;;;;;;;6.50;74.00;;;;;;5032167;27;117459;-83
2021/01/25 04:09:19;;;;;;;;;;;6.50;74.00;;;;;;5032221;27;117424;-83
2021/01/25 04:11:45;;;;;;;;;;;6.50;74.00;;;;;;5049094;27;119592;-83
2021/01/25 04:14:10;;;;;;;;;;;6.50;74.00;;;;;;5031739;27;120399;-83
2021/01/25 04:16:36;;;;;;;;;;;6.50;74.00;;;;;;5032552;27;117821;-83
2021/01/25 04:19:02;;;;;;;;;;;6.50;73.90;;;;;;5033026;27;117189;-83
2021/01/25 04:21:28;;;;;;;;;;;6.50;74.00;;;;;;5031658;27;121334;-83
2021/01/25 04:23:53;;;;;;;;;;;6.50;74.00;;;;;;5048663;27;117748;-83
2021/01/25 04:26:19;;;;;;;;;;;6.50;73.90;;;;;;5032642;27;117308;-83
2021/01/25 04:28:44;;;;;;;;;;;6.50;74.00;;;;;;5049400;27;117205;-83
2021/01/25 04:31:10;;;;;;;;;;;6.50;74.00;;;;;;5031319;27;121005;-83
2021/01/25 04:33:36;;;;;;;;;;;6.50;74.00;;;;;;5048222;27;117921;-83
2021/01/25 04:36:01;;;;;;;;;;;6.50;74.10;;;;;;5032245;27;117843;-83
2021/01/25 04:38:27;;;;;;;;;;;6.50;74.00;;;;;;5049744;27;117485;-83
2021/01/25 04:40:52;;;;;;;;;;;6.50;74.10;;;;;;5031305;27;119673;-83
2021/01/25 04:43:18;;;;;;;;;;;6.50;74.10;;;;;;5031391;27;120091;-83
2021/01/25 04:45:45;;;;;;;;;;;6.50;74.10;;;;;;5049395;27;117381;-83
2021/01/25 04:48:10;;;;;;;;;;;6.50;74.10;;;;;;5032428;27;117878;-83
2021/01/25 04:50:36;;;;;;;;;;;6.50;74.10;;;;;;5031285;27;122137;-83
2021/01/25 04:53:01;;;;;;;;;;;6.50;74.20;;;;;;5031271;27;119535;-83
2021/01/25 04:55:27;;;;;;;;;;;6.50;74.10;;;;;;5032080;27;117363;-83
2021/01/25 04:57:52;;;;;;;;;;;6.50;74.10;;;;;;5049060;27;117350;-83
2021/01/25 05:00:18;;;;;;;;;;;6.50;74.20;;;;;;5030371;27;127830;-83
2021/01/25 05:02:44;;;;;;;;;;;6.50;74.20;;;;;;5031214;27;119304;-83
2021/01/25 05:05:10;;;;;;;;;;;6.50;74.10;;;;;;5031985;27;117607;-83
2021/01/25 05:07:35;;;;;;;;;;;6.50;74.10;;;;;;5032193;27;117328;-83
2021/01/25 05:10:01;;;;;;;;;;;6.50;74.20;;;;;;5030475;27;119990;-83
2021/01/25 05:12:45;;;;;;;;;;;6.50;74.10;;;;;;5030991;27;119293;-83
2021/01/25 05:15:11;;;;;;;;;;;6.50;74.20;;;;;;5048805;27;117323;-83
2021/01/25 05:17:37;;;;;;;;;;;6.50;74.20;;;;;;5048060;27;117499;-83
2021/01/25 05:20:05;;;;;;;;;;;6.50;74.20;;;;;;5030582;27;120464;-83
2021/01/25 05:22:32;;;;;;;;;;;6.50;74.20;;;;;;5046891;27;117934;-83
2021/01/25 05:24:58;;;;;;;;;;;6.50;74.20;;;;;;5031457;27;117498;-83
2021/01/25 05:27:28;;;;;;;;;;;6.50;74.20;;;;;;5031464;27;117354;-83
2021/01/25 05:30:07;;;;;;;;;;;6.50;74.20;;;;;;5030547;27;120637;-83
2021/01/25 05:32:42;;;;;;;;;;;6.50;74.20;;;;;;5030725;27;119883;-83
2021/01/25 05:35:08;;;;;;;;;;;6.50;74.20;;;;;;5048691;27;117424;-83
2021/01/25 05:37:34;;;;;;;;;;;6.50;74.20;;;;;;5048798;27;117670;-83
2021/01/25 05:40:00;;;;;;;;;;;6.40;74.20;;;;;;5030330;27;120341;-83
2021/01/25 05:42:34;;;;;;;;;;;6.50;74.20;;;;;;5030426;27;121248;-83
2021/01/25 05:45:07;;;;;;;;;;;6.50;74.20;;;;;;5031279;27;117510;-83
2021/01/25 05:47:41;;;;;;;;;;;6.40;74.20;;;;;;5031148;27;117270;-83
2021/01/25 05:50:07;;;;;;;;;;;6.50;74.20;;;;;;5030183;27;121632;-83
2021/01/25 05:52:33;;;;;;;;;;;6.50;74.20;;;;;;5030056;27;120757;-83
2021/01/25 05:54:58;;;;;;;;;;;6.50;74.20;;;;;;5030758;27;117470;-83
2021/01/25 05:57:24;;;;;;;;;;;6.40;74.20;;;;;;5031574;27;117286;-83
2021/01/25 05:59:49;;;;;;;;;;;6.40;74.20;;;;;;5029992;27;120632;-83
2021/01/25 06:02:15;;;;;;;;;;;6.50;74.30;;;;;;5030099;27;119440;-83
2021/01/25 06:04:40;;;;;;;;;;;6.40;74.20;;;;;;5030747;27;117483;-83
2021/01/25 06:07:07;;;;;;;;;;;6.40;74.20;;;;;;5048641;27;117592;-83
2021/01/25 06:09:45;;;;;;;;;;;6.50;74.30;;;;;;5029813;27;121007;-83
2021/01/25 06:12:11;;;;;;;;;;;6.50;74.30;;;;;;5046416;27;119682;-83
2021/01/25 06:14:38;;;;;;;;;;;6.40;74.20;;;;;;5030736;27;117736;-83
2021/01/25 06:17:04;;;;;;;;;;;6.40;74.20;;;;;;5031266;27;117601;-83
2021/01/25 06:19:29;;;;;;;;;;;6.40;74.20;;;;;;5046815;27;118717;-83
2021/01/25 06:21:55;;;;;;;;;;;6.40;74.20;;;;;;5046999;27;117932;-83
2021/01/25 06:24:20;;;;;;;;;;;6.40;74.20;;;;;;5030479;27;117649;-83
2021/01/25 06:26:49;;;;;;;;;;;6.40;74.30;;;;;;5048566;27;117337;-83
2021/01/25 06:29:17;;;;;;;;;;;6.40;74.30;;;;;;5048666;27;117920;-83
2021/01/25 06:31:42;;;;;;;;;;;6.40;74.20;;;;;;5033611;27;119730;-83
2021/01/25 06:34:09;;;;;;;;;;;6.40;74.30;;;;;;5034136;27;117576;-83
2021/01/25 06:36:35;;;;;;;;;;;6.40;74.20;;;;;;5034029;27;117362;-83
2021/01/25 06:39:01;;;;;;;;;;;6.40;74.30;;;;;;5032910;27;120314;-83
2021/01/25 06:41:34;;;;;;;;;;;6.40;74.30;;;;;;5033373;27;119052;-83
2021/01/25 06:43:59;;;;;;;;;;;6.40;74.30;;;;;;5034226;27;117407;-83
2021/01/25 06:46:25;;;;;;;;;;;6.40;74.20;;;;;;5034363;27;117718;-83
2021/01/25 06:48:51;;;;;;;;;;;6.40;74.20;;;;;;5032755;27;123813;-83
2021/01/25 06:51:17;;;;;;;;;;;6.40;74.30;;;;;;5050648;27;117977;-83
2021/01/25 06:53:42;;;;;;;;;;;6.40;74.30;;;;;;5034226;27;117386;-83
2021/01/25 06:56:08;;;;;;;;;;;6.40;74.20;;;;;;5034149;27;117763;-83
2021/01/25 06:58:33;;;;;;;;;;;6.40;74.20;;;;;;5032746;27;120553;-83
2021/01/25 07:01:08;;;;;;;;;;;6.40;74.20;;;;;;5032206;27;119228;-83
2021/01/25 07:03:49;;;;;;;;;;;6.40;74.30;;;;;;5033828;27;117646;-83
2021/01/25 07:06:15;;;;;;;;;;;6.40;74.30;;;;;;5051015;27;117319;-83
2021/01/25 07:08:50;;;;;;;;;;;6.40;74.30;;;;;;5032689;27;121478;-83
2021/01/25 07:11:16;;;;;;;;;;;6.40;74.30;;;;;;5032825;27;119774;-83
2021/01/25 07:13:42;;;;;;;;;;;6.40;74.30;;;;;;5033677;27;117545;-82
2021/01/25 07:16:07;;;;;;;;;;;6.40;74.30;;;;;;5033995;27;117384;-82
2021/01/25 07:18:33;;;;;;;;;;;6.40;74.30;;;;;;5049578;27;118446;-82
2021/01/25 07:20:59;;;;;;;;;;;6.40;74.30;;;;;;5032704;27;120265;-82
2021/01/25 07:23:25;;;;;;;;;;;6.40;74.30;;;;;;5051113;27;117436;-82
2021/01/25 07:25:58;;;;;;;;;;;6.20;69.10;;;;;;5050408;27;117474;-82
2021/01/25 07:28:23;;;;;;;;;;;6.00;70.70;;;;;;5032352;27;121706;-82
2021/01/25 07:30:49;;;;;;;;;;;6.10;71.90;;;;;;5032612;27;120187;-82
2021/01/25 07:33:15;;;;;;;;;;;6.10;72.30;;;;;;5033413;27;117618;-82
2021/01/25 07:35:40;;;;;;;;;;;6.20;72.80;;;;;;5050560;27;117812;-82
2021/01/25 07:38:06;;;;;;;;;;;6.20;73.10;;;;;;5032300;27;120657;-82
2021/01/25 07:40:31;;;;;;;;;;;6.20;73.30;;;;;;5031070;27;119208;-82
2021/01/25 07:42:57;;;;;;;;;;;6.20;73.50;;;;;;5033274;27;117600;-82
2021/01/25 07:45:22;;;;;;;;;;;6.30;73.70;;;;;;5033417;27;118176;-83
2021/01/25 07:47:48;;;;;;;;;;;6.20;73.70;;;;;;5049550;27;118869;-83
2021/01/25 07:50:14;;;;;;;;;;;6.30;73.80;;;;;;5031693;27;119462;-83
2021/01/25 07:52:39;;;;;;;;;;;6.30;74.50;;;;;;5049906;27;117315;-83
2021/01/25 07:55:15;;;;;;;;;;;6.30;74.00;;;;;;5033181;27;117404;-83
2021/01/25 07:57:44;;;;;;;;;;;6.30;74.00;;;;;;5049333;27;117772;-83
2021/01/25 08:00:15;;;;;;;;;;;6.30;74.10;;;;;;5031625;27;119202;-83
2021/01/25 08:02:40;;;;;;;;;;;6.30;74.10;;;;;;5032852;27;117212;-83
2021/01/25 08:05:06;;;;;;;;;;;6.30;74.20;;;;;;5033190;27;117422;-83
2021/01/25 08:07:31;;;;;;;;;;;6.30;74.20;;;;;;5032296;27;120422;-83
2021/01/25 08:09:57;;;;;;;;;;;6.30;74.30;;;;;;5031764;27;120756;-83
2021/01/25 08:12:23;;;;;;;;;;;6.30;74.30;;;;;;5032825;27;117497;-83
2021/01/25 08:14:49;;;;;;;;;;;6.30;74.30;;;;;;5032595;27;117556;-83
2021/01/25 08:17:17;;;;;;;;;;;6.30;74.30;;;;;;5031969;27;120299;-83
2021/01/25 08:19:45;;;;;;;;;;;6.30;74.40;;;;;;5031499;27;119603;-82
2021/01/25 08:22:13;;;;;;;;;;;6.30;75.00;;;;;;5049510;27;117465;-82
2021/01/25 08:24:38;;;;;;;;;;;6.30;74.40;;;;;;5032632;27;117492;-82
2021/01/25 08:27:24;;;;;;;;;;;6.30;74.40;;;;;;5031695;27;121385;-82
2021/01/25 08:29:55;;;;;;;;;;;6.30;74.40;;;;;;5066149;27;117763;-82
2021/01/25 08:32:38;;;;;;;;;;;6.30;74.60;;;;;;5049973;27;117359;-85
2021/01/25 08:35:04;;;;;;;;;;;6.30;74.50;;;;;;5033027;27;117318;-83
2021/01/25 08:37:31;;;;;;;;;;;6.30;73.80;;;;;;5048369;27;119878;-83
2021/01/25 08:39:56;;;;;;;;;;;6.30;74.00;;;;;;5030730;27;120780;-83
2021/01/25 08:42:23;;;;;;;;;;;6.30;74.30;;;;;;5049410;27;117509;-82
2021/01/25 08:44:49;;;;;;;;;;;6.30;74.30;;;;;;5049740;27;117731;-82
2021/01/25 08:47:17;;;;;;;;;;;6.30;74.40;;;;;;5031302;27;121254;-82
2021/01/25 08:49:42;;;;;;;;;;;6.30;74.50;;;;;;5048412;27;117293;-82
2021/01/25 08:52:08;;;;;;;;;;;6.30;74.60;;;;;;5049084;27;117309;-82
2021/01/25 08:54:38;;;;;;;;;;;6.30;74.50;;;;;;5049650;27;117537;-82
2021/01/25 08:57:32;;;;;;;;;;;6.30;74.50;;;;;;5031267;27;121307;-82
2021/01/25 09:00:34;;;;;;;;;;;6.30;74.60;;;;;;5025436;27;119558;-82
2021/01/25 09:03:00;;;;;;;;;;;6.30;74.60;;;;;;4948137;28;117477;-82
2021/01/25 09:05:26;;;;;;;;;;;6.30;74.60;;;;;;5028058;27;117990;-82
2021/01/25 09:07:52;;;;;;;;;;;6.30;74.60;;;;;;5048307;27;117483;-83
2021/01/25 09:10:17;;;;;;;;;;;6.30;74.70;;;;;;5030890;27;119049;-83
2021/01/25 09:12:43;;;;;;;;;;;6.30;74.70;;;;;;5031832;27;117552;-83
2021/01/25 09:15:09;;;;;;;;;;;6.30;74.70;;;;;;5032142;27;117475;-83
2021/01/25 09:17:35;;;;;;;;;;;6.30;74.70;;;;;;5047974;27;118575;-83
2021/01/25 09:20:01;;;;;;;;;;;6.30;74.70;;;;;;5030678;27;120500;-83
2021/01/25 09:22:26;;;;;;;;;;;6.30;74.80;;;;;;5049159;27;117524;-83
2021/01/25 09:24:53;;;;;;;;;;;6.30;74.80;;;;;;5031904;27;117336;-83
2021/01/25 09:27:19;;;;;;;;;;;6.30;74.80;;;;;;5030814;27;121332;-83
2021/01/25 09:29:44;;;;;;;;;;;6.30;74.80;;;;;;5029987;27;120823;-83
2021/01/25 09:32:10;;;;;;;;;;;6.30;74.80;;;;;;5048681;27;117344;-83
2021/01/25 09:34:35;;;;;;;;;;;6.30;74.80;;;;;;5031891;27;117397;-83
2021/01/25 09:37:03;;;;;;;;;;;6.30;74.80;;;;;;5030552;27;119877;-83
2021/01/25 09:39:29;;;;;;;;;;;6.30;74.80;;;;;;5047318;27;120555;-83
2021/01/25 09:41:54;;;;;;;;;;;6.30;74.90;;;;;;5031371;27;117397;-83
2021/01/25 09:44:20;;;;;;;;;;;6.30;74.90;;;;;;5048623;27;117847;-83
2021/01/25 09:46:45;;;;;;;;;;;6.30;75.00;;;;;;5030773;27;121187;-83
2021/01/25 09:49:11;;;;;;;;;;;6.30;75.00;;;;;;5030157;27;121037;-83
2021/01/25 09:51:36;;;;;;;;;;;6.30;74.90;;;;;;5031436;27;117557;-83
2021/01/25 09:54:02;;;;;;;;;;;6.30;75.00;;;;;;5030725;27;117427;-83
2021/01/25 09:56:27;;;;;;;;;;;6.30;75.10;;;;;;5030141;27;120353;-83
2021/01/25 09:58:53;;;;;;;;;;;6.30;75.00;;;;;;5030087;27;120472;-83
2021/01/25 10:01:18;;;;;;;;;;;6.30;75.00;;;;;;5031006;27;117276;-83
2021/01/25 10:03:44;;;;;;;;;;;6.30;75.00;;;;;;5030579;27;117768;-83
2021/01/25 10:06:09;;;;;;;;;;;6.30;75.00;;;;;;5030261;27;120428;-83
2021/01/25 10:08:36;;;;;;;;;;;6.30;75.10;;;;;;5047134;27;117916;-83
2021/01/25 10:11:02;;;;;;;;;;;6.30;75.10;;;;;;5031550;27;117396;-83
2021/01/25 10:13:28;;;;;;;;;;;6.30;75.10;;;;;;5048673;27;117684;-83
2021/01/25 10:15:53;;;;;;;;;;;6.30;75.00;;;;;;5047434;27;118607;-83
2021/01/25 10:18:19;;;;;;;;;;;6.30;75.10;;;;;;5046203;27;123934;-83
2021/01/25 10:20:44;;;;;;;;;;;6.30;75.10;;;;;;5031034;27;117542;-83
2021/01/25 10:23:10;;;;;;;;;;;6.30;75.10;;;;;;5031395;27;117601;-83
2021/01/25 10:25:35;;;;;;;;;;;6.30;75.20;;;;;;5047257;27;117627;-83
2021/01/25 10:28:01;;;;;;;;;;;6.30;75.20;;;;;;5030221;27;119295;-83
2021/01/25 10:30:27;;;;;;;;;;;6.30;75.20;;;;;;5030723;27;117626;-83
2021/01/25 10:32:52;;;;;;;;;;;6.20;75.20;;;;;;5031461;27;117409;-83
2021/01/25 10:35:19;;;;;;;;;;;6.30;75.30;;;;;;5047650;27;120693;-83
2021/01/25 10:37:44;;;;;;;;;;;6.20;75.30;;;;;;5030584;27;120441;-83
2021/01/25 10:40:10;;;;;;;;;;;6.20;75.20;;;;;;5030799;27;117390;-83
2021/01/25 10:42:35;;;;;;;;;;;6.20;75.30;;;;;;5047577;27;117728;-83
2021/01/25 10:45:01;;;;;;;;;;;6.20;75.20;;;;;;5029880;27;120318;-83
2021/01/25 10:47:26;;;;;;;;;;;6.30;75.30;;;;;;5030009;27;119635;-83
2021/01/25 10:49:52;;;;;;;;;;;6.30;75.30;;;;;;5030243;27;118132;-83
2021/01/25 10:52:17;;;;;;;;;;;6.30;75.20;;;;;;5048268;27;117553;-83
2021/01/25 10:54:43;;;;;;;;;;;6.20;75.30;;;;;;5029741;27;121587;-83
2021/01/25 10:57:09;;;;;;;;;;;6.20;75.30;;;;;;5029561;27;120513;-83
2021/01/25 10:59:34;;;;;;;;;;;6.30;75.40;;;;;;5047284;27;117491;-83
2021/01/25 11:02:00;;;;;;;;;;;6.20;75.20;;;;;;5031252;27;117914;-83
2021/01/25 11:04:25;;;;;;;;;;;6.20;75.30;;;;;;5029573;27;120513;-83
2021/01/25 11:06:51;;;;;;;;;;;6.30;75.30;;;;;;5028521;27;120016;-83
2021/01/25 11:09:17;;;;;;;;;;;6.20;75.30;;;;;;5029875;27;117492;-83
2021/01/25 11:11:42;;;;;;;;;;;6.30;75.40;;;;;;5047860;27;117760;-83
2021/01/25 11:14:08;;;;;;;;;;;6.20;75.40;;;;;;5029120;27;120099;-83
2021/01/25 11:16:33;;;;;;;;;;;6.20;75.40;;;;;;5032740;27;119465;-83
2021/01/25 11:18:59;;;;;;;;;;;6.20;75.40;;;;;;5050511;27;117418;-83
2021/01/25 11:21:24;;;;;;;;;;;6.20;75.40;;;;;;5033873;27;117839;-83
2021/01/25 11:23:50;;;;;;;;;;;6.30;75.50;;;;;;5050013;27;118594;-83
2021/01/25 11:26:17;;;;;;;;;;;6.20;75.50;;;;;;5049695;27;117605;-83
2021/01/25 11:28:42;;;;;;;;;;;6.20;75.50;;;;;;5050612;27;117604;-83
2021/01/25 11:31:08;;;;;;;;;;;6.20;75.50;;;;;;5033148;27;117979;-83
2021/01/25 11:33:34;;;;;;;;;;;6.20;75.60;;;;;;5032468;27;120616;-83
2021/01/25 11:35:59;;;;;;;;;;;6.20;75.50;;;;;;5032592;27;120555;-83
2021/01/25 11:38:25;;;;;;;;;;;6.20;75.60;;;;;;5033014;27;117519;-83
2021/01/25 11:40:50;;;;;;;;;;;6.20;75.60;;;;;;5050864;27;117873;-83
2021/01/25 11:43:16;;;;;;;;;;;6.20;75.60;;;;;;5049550;27;118370;-83
2021/01/25 11:45:41;;;;;;;;;;;6.20;75.60;;;;;;5032170;27;119348;-83
2021/01/25 11:48:07;;;;;;;;;;;6.30;75.70;;;;;;5033288;27;117414;-83
2021/01/25 11:50:35;;;;;;;;;;;6.20;75.50;;;;;;5048352;27;117823;-83
2021/01/25 11:53:00;;;;;;;;;;;6.20;75.70;;;;;;5031929;27;120396;-83
2021/01/25 11:55:26;;;;;;;;;;;6.20;75.70;;;;;;5048877;27;118074;-83
2021/01/25 11:57:51;;;;;;;;;;;6.20;75.70;;;;;;5032901;27;117240;-83
2021/01/25 12:00:17;;;;;;;;;;;6.20;75.70;;;;;;5032816;27;117874;-83
2021/01/25 12:02:42;;;;;;;;;;;6.20;75.70;;;;;;5049179;27;118273;-83
2021/01/25 12:05:09;;;;;;;;;;;6.20;75.70;;;;;;5031782;27;120617;-83
2021/01/25 12:07:34;;;;;;;;;;;6.20;75.60;;;;;;5032911;27;117630;-83
2021/01/25 12:10:00;;;;;;;;;;;6.20;75.70;;;;;;5033045;27;117564;-83
2021/01/25 12:12:25;;;;;;;;;;;6.20;75.80;;;;;;5031830;27;120482;-83
2021/01/25 12:14:51;;;;;;;;;;;6.20;75.70;;;;;;5048615;27;120585;-83
2021/01/25 12:17:16;;;;;;;;;;;6.20;75.70;;;;;;5032720;27;117470;-83
2021/01/25 12:19:42;;;;;;;;;;;6.20;75.70;;;;;;5032057;27;117513;-83
2021/01/25 12:22:07;;;;;;;;;;;6.20;75.80;;;;;;5031743;27;121540;-83
2021/01/25 12:24:33;;;;;;;;;;;6.20;75.90;;;;;;5031553;27;123308;-83
2021/01/25 12:26:58;;;;;;;;;;;6.20;75.90;;;;;;5031725;27;117365;-83
2021/01/25 12:29:24;;;;;;;;;;;6.20;75.90;;;;;;5032707;27;117820;-83
2021/01/25 12:31:49;;;;;;;;;;;6.20;75.80;;;;;;5031566;27;120258;-83
2021/01/25 12:34:16;;;;;;;;;;;6.20;75.80;;;;;;5048736;27;117965;-83
2021/01/25 12:36:41;;;;;;;;;;;6.20;75.90;;;;;;5049893;27;117347;-83
2021/01/25 12:39:07;;;;;;;;;;;6.20;75.90;;;;;;5032262;27;117363;-83
2021/01/25 12:41:32;;;;;;;;;;;6.20;76.00;;;;;;5031518;27;119776;-83
2021/01/25 12:43:58;;;;;;;;;;;6.20;76.00;;;;;;5030681;27;120525;-83
2021/01/25 12:46:23;;;;;;;;;;;6.20;76.20;;;;;;5032046;27;117557;-83
2021/01/25 12:48:49;;;;;;;;;;;6.20;76.10;;;;;;5032296;27;117927;-83
2021/01/25 12:51:14;;;;;;;;;;;6.20;76.00;;;;;;5048429;27;117580;-83
2021/01/25 12:53:41;;;;;;;;;;;6.20;76.00;;;;;;5031228;27;119678;-83
2021/01/25 12:56:06;;;;;;;;;;;6.20;75.90;;;;;;5032228;27;117536;-83
2021/01/25 12:58:32;;;;;;;;;;;6.20;76.00;;;;;;5031688;27;117432;-83
2021/01/25 13:00:58;;;;;;;;;;;6.20;76.00;;;;;;5031345;27;120750;-83
2021/01/25 13:03:23;;;;;;;;;;;6.20;75.90;;;;;;5031008;27;119757;-83
2021/01/25 13:05:49;;;;;;;;;;;6.20;76.00;;;;;;5049105;27;117311;-84
2021/01/25 13:08:14;;;;;;;;;;;6.20;76.10;;;;;;5031460;27;117878;-84
2021/01/25 13:10:40;;;;;;;;;;;6.20;76.00;;;;;;5047746;27;125413;-84
2021/01/25 13:13:06;;;;;;;;;;;6.20;76.10;;;;;;5031006;27;121040;-84
2021/01/25 13:15:34;;;;;;;;;;;6.20;76.10;;;;;;5031985;27;117312;-84
2021/01/25 13:18:00;;;;;;;;;;;6.20;76.20;;;;;;5032304;27;117419;-84
2021/01/25 13:20:25;;;;;;;;;;;6.20;76.10;;;;;;5030701;27;120939;-84
2021/01/25 13:22:51;;;;;;;;;;;6.20;76.10;;;;;;5047985;27;118017;-84
2021/01/25 13:25:17;;;;;;;;;;;6.20;76.10;;;;;;5031753;27;117495;-84
2021/01/25 13:27:42;;;;;;;;;;;6.20;76.10;;;;;;5032262;27;117442;-84
2021/01/25 13:30:08;;;;;;;;;;;6.20;76.20;;;;;;5047517;27;118697;-84
2021/01/25 13:32:36;;;;;;;;;;;6.20;76.10;;;;;;5029961;27;120642;-89
2021/01/25 13:35:05;;;;;;;;;;;6.20;76.20;;;;;;5032173;27;116559;-91
2021/01/25 13:37:30;;;;;;;;;;;6.20;76.10;;;;;;5031642;27;116812;-90
2021/01/25 13:39:56;;;;;;;;;;;6.20;76.20;;;;;;5029679;27;120124;-91
2021/01/25 13:42:21;;;;;;;;;;;6.20;76.30;;;;;;5030705;27;119366;-91
2021/01/25 13:44:47;;;;;;;;;;;6.20;76.20;;;;;;5031534;27;116592;-91
2021/01/25 13:47:12;;;;;;;;;;;6.20;76.20;;;;;;5031651;27;116824;-91
2021/01/25 13:49:38;;;;;;;;;;;6.20;76.20;;;;;;5047793;27;119922;-90
2021/01/25 13:52:03;;;;;;;;;;;6.20;76.20;;;;;;5030592;27;119363;-90
2021/01/25 13:54:29;;;;;;;;;;;6.20;76.20;;;;;;5031457;27;116651;-91
2021/01/25 13:56:54;;;;;;;;;;;6.20;76.30;;;;;;5031189;27;116890;-90
2021/01/25 13:59:20;;;;;;;;;;;6.20;76.30;;;;;;5029831;27;120464;-88
2021/01/25 14:01:45;;;;;;;;;;;6.20;76.20;;;;;;5047494;27;117109;-87
2021/01/25 14:04:11;;;;;;;;;;;6.20;76.30;;;;;;5031258;27;117562;-88
2021/01/25 14:06:36;;;;;;;;;;;6.20;76.20;;;;;;5031406;27;117284;-88
2021/01/25 14:09:02;;;;;;;;;;;6.20;76.30;;;;;;5029817;27;120285;-87
2021/01/25 14:11:28;;;;;;;;;;;6.20;76.30;;;;;;5030243;27;120504;-88